sensor_id;sensor_type;location;lat;lon;timestamp;temperature;humidity
41884;DHT22;27566;50.930;5.328;2023-10-31T00:02:01;12.60;91.00
41884;DHT22;27566;50.930;5.328;2023-10-31T00:04:27;12.70;91.00
41884;DHT22;27566;50.930;5.328;2023-10-31T00:06:53;12.70;90.90
41884;DHT22;27566;50.930;5.328;2023-10-31T00:09:19;12.70;90.80
41884;DHT22;27566;50.930;5.328;2023-10-31T00:11:45;12.70;90.70
41884;DHT22;27566;50.930;5.328;2023-10-31T00:14:11;12.70;90.70
41884;DHT22;27566;50.930;5.328;2023-10-31T00:16:37;12.70;90.60
41884;DHT22;27566;50.930;5.328;2023-10-31T00:19:02;12.70;90.60
41884;DHT22;27566;50.930;5.328;2023-10-31T00:21:28;12.70;90.70
41884;DHT22;27566;50.930;5.328;2023-10-31T00:23:54;12.70;90.60
41884;DHT22;27566;50.930;5.328;2023-10-31T00:26:20;12.70;90.50
41884;DHT22;27566;50.930;5.328;2023-10-31T00:28:46;12.70;90.40
41884;DHT22;27566;50.930;5.328;2023-10-31T00:31:12;12.60;90.30
41884;DHT22;27566;50.930;5.328;2023-10-31T00:33:40;12.60;90.20
41884;DHT22;27566;50.930;5.328;2023-10-31T00:36:06;12.50;90.20
41884;DHT22;27566;50.930;5.328;2023-10-31T00:38:33;12.40;90.20
41884;DHT22;27566;50.930;5.328;2023-10-31T00:40:59;12.40;90.20
41884;DHT22;27566;50.930;5.328;2023-10-31T00:43:25;12.40;90.40
41884;DHT22;27566;50.930;5.328;2023-10-31T00:45:50;12.30;90.50
41884;DHT22;27566;50.930;5.328;2023-10-31T00:48:16;12.30;90.50
41884;DHT22;27566;50.930;5.328;2023-10-31T00:50:43;12.30;90.60
41884;DHT22;27566;50.930;5.328;2023-10-31T00:53:09;12.30;90.70
41884;DHT22;27566;50.930;5.328;2023-10-31T00:55:35;12.30;90.70
41884;DHT22;27566;50.930;5.328;2023-10-31T00:58:01;12.40;90.80
41884;DHT22;27566;50.930;5.328;2023-10-31T01:00:27;12.40;90.80
41884;DHT22;27566;50.930;5.328;2023-10-31T01:02:53;12.40;90.80
41884;DHT22;27566;50.930;5.328;2023-10-31T01:05:19;12.50;90.80
41884;DHT22;27566;50.930;5.328;2023-10-31T01:07:44;12.50;90.80
41884;DHT22;27566;50.930;5.328;2023-10-31T01:10:10;12.50;90.80
41884;DHT22;27566;50.930;5.328;2023-10-31T01:12:37;12.50;90.70
41884;DHT22;27566;50.930;5.328;2023-10-31T01:15:03;12.50;90.70
41884;DHT22;27566;50.930;5.328;2023-10-31T01:17:29;12.60;90.70
41884;DHT22;27566;50.930;5.328;2023-10-31T01:19:55;12.60;90.70
41884;DHT22;27566;50.930;5.328;2023-10-31T01:22:21;12.60;90.60
41884;DHT22;27566;50.930;5.328;2023-10-31T01:24:47;12.60;90.60
41884;DHT22;27566;50.930;5.328;2023-10-31T01:27:13;12.60;90.60
41884;DHT22;27566;50.930;5.328;2023-10-31T01:29:38;12.60;90.50
41884;DHT22;27566;50.930;5.328;2023-10-31T01:32:05;12.50;90.40
41884;DHT22;27566;50.930;5.328;2023-10-31T01:34:31;12.50;90.40
41884;DHT22;27566;50.930;5.328;2023-10-31T01:36:57;12.40;90.40
41884;DHT22;27566;50.930;5.328;2023-10-31T01:39:22;12.50;90.60
41884;DHT22;27566;50.930;5.328;2023-10-31T01:41:48;12.50;90.60
41884;DHT22;27566;50.930;5.328;2023-10-31T01:44:14;12.50;90.60
41884;DHT22;27566;50.930;5.328;2023-10-31T01:46:40;12.50;90.50
41884;DHT22;27566;50.930;5.328;2023-10-31T01:49:06;12.50;90.50
41884;DHT22;27566;50.930;5.328;2023-10-31T01:51:32;12.50;90.50
41884;DHT22;27566;50.930;5.328;2023-10-31T01:53:58;12.50;90.60
41884;DHT22;27566;50.930;5.328;2023-10-31T01:56:25;12.60;90.60
41884;DHT22;27566;50.930;5.328;2023-10-31T01:58:53;12.60;90.60
41884;DHT22;27566;50.930;5.328;2023-10-31T02:01:19;12.60;90.60
41884;DHT22;27566;50.930;5.328;2023-10-31T02:03:45;12.70;90.60
41884;DHT22;27566;50.930;5.328;2023-10-31T02:06:11;12.80;90.60
41884;DHT22;27566;50.930;5.328;2023-10-31T02:08:37;12.80;90.50
41884;DHT22;27566;50.930;5.328;2023-10-31T02:11:03;12.80;90.50
41884;DHT22;27566;50.930;5.328;2023-10-31T02:13:31;12.80;90.40
41884;DHT22;27566;50.930;5.328;2023-10-31T02:15:57;12.90;90.40
41884;DHT22;27566;50.930;5.328;2023-10-31T02:18:22;13.00;90.40
41884;DHT22;27566;50.930;5.328;2023-10-31T02:20:48;13.00;90.30
41884;DHT22;27566;50.930;5.328;2023-10-31T02:23:17;13.00;90.20
41884;DHT22;27566;50.930;5.328;2023-10-31T02:25:43;13.00;90.00
41884;DHT22;27566;50.930;5.328;2023-10-31T02:28:09;13.10;90.00
41884;DHT22;27566;50.930;5.328;2023-10-31T02:30:35;13.10;90.00
41884;DHT22;27566;50.930;5.328;2023-10-31T02:33:02;13.10;90.00
41884;DHT22;27566;50.930;5.328;2023-10-31T02:35:28;13.10;90.00
41884;DHT22;27566;50.930;5.328;2023-10-31T02:37:54;13.10;90.00
41884;DHT22;27566;50.930;5.328;2023-10-31T02:40:20;13.00;90.00
41884;DHT22;27566;50.930;5.328;2023-10-31T02:42:46;13.00;89.60
41884;DHT22;27566;50.930;5.328;2023-10-31T02:45:12;13.00;89.70
41884;DHT22;27566;50.930;5.328;2023-10-31T02:47:38;13.00;89.70
41884;DHT22;27566;50.930;5.328;2023-10-31T02:50:04;13.00;89.70
41884;DHT22;27566;50.930;5.328;2023-10-31T02:52:30;13.00;89.60
41884;DHT22;27566;50.930;5.328;2023-10-31T02:54:56;13.00;89.60
41884;DHT22;27566;50.930;5.328;2023-10-31T02:57:22;13.00;89.50
41884;DHT22;27566;50.930;5.328;2023-10-31T02:59:48;13.00;89.50
41884;DHT22;27566;50.930;5.328;2023-10-31T03:02:14;13.00;89.40
41884;DHT22;27566;50.930;5.328;2023-10-31T03:04:40;12.90;89.30
41884;DHT22;27566;50.930;5.328;2023-10-31T03:07:06;12.90;89.20
41884;DHT22;27566;50.930;5.328;2023-10-31T03:09:32;12.90;89.00
41884;DHT22;27566;50.930;5.328;2023-10-31T03:11:58;12.90;89.20
41884;DHT22;27566;50.930;5.328;2023-10-31T03:14:24;12.90;89.30
41884;DHT22;27566;50.930;5.328;2023-10-31T03:16:50;12.90;89.30
41884;DHT22;27566;50.930;5.328;2023-10-31T03:19:17;12.90;89.30
41884;DHT22;27566;50.930;5.328;2023-10-31T03:21:42;12.90;89.30
41884;DHT22;27566;50.930;5.328;2023-10-31T03:24:08;13.00;89.30
41884;DHT22;27566;50.930;5.328;2023-10-31T03:26:35;13.00;89.20
41884;DHT22;27566;50.930;5.328;2023-10-31T03:29:01;13.00;89.10
41884;DHT22;27566;50.930;5.328;2023-10-31T03:31:26;13.00;88.90
41884;DHT22;27566;50.930;5.328;2023-10-31T03:33:53;13.00;88.80
41884;DHT22;27566;50.930;5.328;2023-10-31T03:36:19;13.10;88.80
41884;DHT22;27566;50.930;5.328;2023-10-31T03:38:45;13.10;88.70
41884;DHT22;27566;50.930;5.328;2023-10-31T03:41:11;13.10;88.60
41884;DHT22;27566;50.930;5.328;2023-10-31T03:43:38;13.00;88.40
41884;DHT22;27566;50.930;5.328;2023-10-31T03:46:04;13.00;88.40
41884;DHT22;27566;50.930;5.328;2023-10-31T03:48:31;13.00;88.40
41884;DHT22;27566;50.930;5.328;2023-10-31T03:50:56;13.00;88.30
41884;DHT22;27566;50.930;5.328;2023-10-31T03:53:22;13.00;88.20
41884;DHT22;27566;50.930;5.328;2023-10-31T03:55:48;13.00;88.00
41884;DHT22;27566;50.930;5.328;2023-10-31T03:58:14;13.00;88.00
41884;DHT22;27566;50.930;5.328;2023-10-31T04:00:40;13.00;87.90
41884;DHT22;27566;50.930;5.328;2023-10-31T04:03:09;13.00;87.90
41884;DHT22;27566;50.930;5.328;2023-10-31T04:05:35;13.00;87.80
41884;DHT22;27566;50.930;5.328;2023-10-31T04:08:01;13.00;87.60
41884;DHT22;27566;50.930;5.328;2023-10-31T04:10:27;13.00;87.40
41884;DHT22;27566;50.930;5.328;2023-10-31T04:12:53;13.00;87.40
41884;DHT22;27566;50.930;5.328;2023-10-31T04:15:19;12.90;87.20
41884;DHT22;27566;50.930;5.328;2023-10-31T04:17:45;12.90;87.30
41884;DHT22;27566;50.930;5.328;2023-10-31T04:20:11;12.90;87.30
41884;DHT22;27566;50.930;5.328;2023-10-31T04:22:37;12.90;87.20
41884;DHT22;27566;50.930;5.328;2023-10-31T04:25:04;12.90;87.10
41884;DHT22;27566;50.930;5.328;2023-10-31T04:27:30;12.80;87.00
41884;DHT22;27566;50.930;5.328;2023-10-31T04:29:55;12.80;87.00
41884;DHT22;27566;50.930;5.328;2023-10-31T04:32:21;12.80;87.10
41884;DHT22;27566;50.930;5.328;2023-10-31T04:34:47;12.70;87.00
41884;DHT22;27566;50.930;5.328;2023-10-31T04:37:13;12.60;87.30
41884;DHT22;27566;50.930;5.328;2023-10-31T04:39:39;12.50;86.60
41884;DHT22;27566;50.930;5.328;2023-10-31T04:42:05;12.30;86.80
41884;DHT22;27566;50.930;5.328;2023-10-31T04:44:31;12.20;87.10
41884;DHT22;27566;50.930;5.328;2023-10-31T04:46:57;12.20;87.50
41884;DHT22;27566;50.930;5.328;2023-10-31T04:49:23;12.10;87.80
41884;DHT22;27566;50.930;5.328;2023-10-31T04:51:48;12.10;87.90
41884;DHT22;27566;50.930;5.328;2023-10-31T04:54:14;12.10;88.00
41884;DHT22;27566;50.930;5.328;2023-10-31T04:56:40;12.10;88.70
41884;DHT22;27566;50.930;5.328;2023-10-31T04:59:06;12.00;88.00
41884;DHT22;27566;50.930;5.328;2023-10-31T05:01:32;11.90;88.00
41884;DHT22;27566;50.930;5.328;2023-10-31T05:03:58;11.90;88.30
41884;DHT22;27566;50.930;5.328;2023-10-31T05:06:24;11.90;88.40
41884;DHT22;27566;50.930;5.328;2023-10-31T05:08:50;11.80;88.20
41884;DHT22;27566;50.930;5.328;2023-10-31T05:11:19;11.70;88.00
41884;DHT22;27566;50.930;5.328;2023-10-31T05:13:45;11.70;88.10
41884;DHT22;27566;50.930;5.328;2023-10-31T05:16:11;11.60;88.20
41884;DHT22;27566;50.930;5.328;2023-10-31T05:18:38;11.50;88.40
41884;DHT22;27566;50.930;5.328;2023-10-31T05:21:04;11.40;88.50
41884;DHT22;27566;50.930;5.328;2023-10-31T05:23:30;11.30;88.40
41884;DHT22;27566;50.930;5.328;2023-10-31T05:25:56;11.20;88.50
41884;DHT22;27566;50.930;5.328;2023-10-31T05:28:22;11.10;88.70
41884;DHT22;27566;50.930;5.328;2023-10-31T05:30:49;11.10;88.90
41884;DHT22;27566;50.930;5.328;2023-10-31T05:33:17;11.00;89.10
41884;DHT22;27566;50.930;5.328;2023-10-31T05:35:43;11.00;89.50
41884;DHT22;27566;50.930;5.328;2023-10-31T05:38:09;11.00;89.90
41884;DHT22;27566;50.930;5.328;2023-10-31T05:40:35;11.00;90.10
41884;DHT22;27566;50.930;5.328;2023-10-31T05:43:01;11.00;90.20
41884;DHT22;27566;50.930;5.328;2023-10-31T05:45:30;11.00;90.30
41884;DHT22;27566;50.930;5.328;2023-10-31T05:47:56;11.00;90.30
41884;DHT22;27566;50.930;5.328;2023-10-31T05:50:22;11.00;90.40
41884;DHT22;27566;50.930;5.328;2023-10-31T05:52:48;11.00;90.50
41884;DHT22;27566;50.930;5.328;2023-10-31T05:55:14;11.10;90.60
41884;DHT22;27566;50.930;5.328;2023-10-31T05:57:40;11.10;90.60
41884;DHT22;27566;50.930;5.328;2023-10-31T06:00:07;11.20;90.80
41884;DHT22;27566;50.930;5.328;2023-10-31T06:02:34;11.30;90.90
41884;DHT22;27566;50.930;5.328;2023-10-31T06:05:00;11.30;90.90
41884;DHT22;27566;50.930;5.328;2023-10-31T06:07:25;11.30;90.80
41884;DHT22;27566;50.930;5.328;2023-10-31T06:09:51;11.40;90.80
41884;DHT22;27566;50.930;5.328;2023-10-31T06:12:17;11.40;90.60
41884;DHT22;27566;50.930;5.328;2023-10-31T06:14:43;11.30;90.50
41884;DHT22;27566;50.930;5.328;2023-10-31T06:17:09;11.30;90.40
41884;DHT22;27566;50.930;5.328;2023-10-31T06:19:36;11.20;90.30
41884;DHT22;27566;50.930;5.328;2023-10-31T06:22:03;11.20;90.30
41884;DHT22;27566;50.930;5.328;2023-10-31T06:24:29;11.20;90.40
41884;DHT22;27566;50.930;5.328;2023-10-31T06:26:55;11.20;90.50
41884;DHT22;27566;50.930;5.328;2023-10-31T06:29:21;11.20;90.50
41884;DHT22;27566;50.930;5.328;2023-10-31T06:31:47;11.10;90.60
41884;DHT22;27566;50.930;5.328;2023-10-31T06:34:13;11.20;90.70
41884;DHT22;27566;50.930;5.328;2023-10-31T06:36:39;11.20;90.70
41884;DHT22;27566;50.930;5.328;2023-10-31T06:39:05;11.30;90.70
41884;DHT22;27566;50.930;5.328;2023-10-31T06:41:31;11.20;90.60
41884;DHT22;27566;50.930;5.328;2023-10-31T06:43:57;11.20;90.60
41884;DHT22;27566;50.930;5.328;2023-10-31T06:46:22;11.20;90.50
41884;DHT22;27566;50.930;5.328;2023-10-31T06:48:48;11.20;90.50
41884;DHT22;27566;50.930;5.328;2023-10-31T06:51:14;11.10;90.40
41884;DHT22;27566;50.930;5.328;2023-10-31T06:53:40;11.10;90.30
41884;DHT22;27566;50.930;5.328;2023-10-31T06:56:06;11.10;90.40
41884;DHT22;27566;50.930;5.328;2023-10-31T06:58:32;11.10;90.40
41884;DHT22;27566;50.930;5.328;2023-10-31T07:00:58;11.10;90.50
41884;DHT22;27566;50.930;5.328;2023-10-31T07:03:25;11.20;90.50
41884;DHT22;27566;50.930;5.328;2023-10-31T07:05:51;11.20;90.50
41884;DHT22;27566;50.930;5.328;2023-10-31T07:08:18;11.20;90.50
41884;DHT22;27566;50.930;5.328;2023-10-31T07:10:44;11.20;90.50
41884;DHT22;27566;50.930;5.328;2023-10-31T07:13:10;11.20;90.50
41884;DHT22;27566;50.930;5.328;2023-10-31T07:15:36;11.30;90.50
41884;DHT22;27566;50.930;5.328;2023-10-31T07:18:05;11.20;90.50
41884;DHT22;27566;50.930;5.328;2023-10-31T07:20:33;11.30;90.60
41884;DHT22;27566;50.930;5.328;2023-10-31T07:22:59;11.30;90.60
41884;DHT22;27566;50.930;5.328;2023-10-31T07:25:25;11.30;90.60
41884;DHT22;27566;50.930;5.328;2023-10-31T07:27:51;11.30;90.60
41884;DHT22;27566;50.930;5.328;2023-10-31T07:30:17;11.40;90.60
41884;DHT22;27566;50.930;5.328;2023-10-31T07:32:43;11.40;90.60
41884;DHT22;27566;50.930;5.328;2023-10-31T07:35:09;11.40;90.60
41884;DHT22;27566;50.930;5.328;2023-10-31T07:37:34;11.50;90.60
41884;DHT22;27566;50.930;5.328;2023-10-31T07:40:00;11.50;90.60
41884;DHT22;27566;50.930;5.328;2023-10-31T07:42:26;11.60;90.60
41884;DHT22;27566;50.930;5.328;2023-10-31T07:44:52;11.60;90.60
41884;DHT22;27566;50.930;5.328;2023-10-31T07:47:18;11.60;90.50
41884;DHT22;27566;50.930;5.328;2023-10-31T07:49:44;11.70;90.60
41884;DHT22;27566;50.930;5.328;2023-10-31T07:52:10;11.70;90.60
41884;DHT22;27566;50.930;5.328;2023-10-31T07:54:39;11.70;90.50
41884;DHT22;27566;50.930;5.328;2023-10-31T07:57:08;11.80;90.50
41884;DHT22;27566;50.930;5.328;2023-10-31T07:59:34;11.90;90.50
41884;DHT22;27566;50.930;5.328;2023-10-31T08:02:00;11.90;90.40
41884;DHT22;27566;50.930;5.328;2023-10-31T08:04:26;12.00;90.40
41884;DHT22;27566;50.930;5.328;2023-10-31T08:06:53;12.00;90.30
41884;DHT22;27566;50.930;5.328;2023-10-31T08:09:19;12.10;90.30
41884;DHT22;27566;50.930;5.328;2023-10-31T08:11:45;12.10;90.30
41884;DHT22;27566;50.930;5.328;2023-10-31T08:14:11;12.20;90.20
41884;DHT22;27566;50.930;5.328;2023-10-31T08:16:37;12.20;90.10
41884;DHT22;27566;50.930;5.328;2023-10-31T08:19:03;12.30;90.00
41884;DHT22;27566;50.930;5.328;2023-10-31T08:21:29;12.30;90.00
41884;DHT22;27566;50.930;5.328;2023-10-31T08:24:01;12.40;90.00
41884;DHT22;27566;50.930;5.328;2023-10-31T08:26:27;12.50;90.30
41884;DHT22;27566;50.930;5.328;2023-10-31T08:28:53;12.70;90.10
41884;DHT22;27566;50.930;5.328;2023-10-31T08:31:19;12.90;90.10
41884;DHT22;27566;50.930;5.328;2023-10-31T08:33:45;13.30;90.20
41884;DHT22;27566;50.930;5.328;2023-10-31T08:36:11;13.60;89.50
41884;DHT22;27566;50.930;5.328;2023-10-31T08:38:37;13.70;86.90
41884;DHT22;27566;50.930;5.328;2023-10-31T08:41:03;13.90;87.00
41884;DHT22;27566;50.930;5.328;2023-10-31T08:43:29;14.10;86.60
41884;DHT22;27566;50.930;5.328;2023-10-31T08:45:55;14.30;85.90
41884;DHT22;27566;50.930;5.328;2023-10-31T08:48:21;14.40;84.80
41884;DHT22;27566;50.930;5.328;2023-10-31T08:50:47;14.60;84.10
41884;DHT22;27566;50.930;5.328;2023-10-31T08:53:14;14.80;82.90
41884;DHT22;27566;50.930;5.328;2023-10-31T08:55:40;15.00;82.20
41884;DHT22;27566;50.930;5.328;2023-10-31T08:58:13;15.00;80.80
41884;DHT22;27566;50.930;5.328;2023-10-31T09:00:40;15.00;80.70
41884;DHT22;27566;50.930;5.328;2023-10-31T09:03:08;15.10;80.40
41884;DHT22;27566;50.930;5.328;2023-10-31T09:05:35;15.00;79.60
41884;DHT22;27566;50.930;5.328;2023-10-31T09:08:01;15.00;78.60
41884;DHT22;27566;50.930;5.328;2023-10-31T09:10:27;15.00;78.50
41884;DHT22;27566;50.930;5.328;2023-10-31T09:12:53;14.90;78.30
41884;DHT22;27566;50.930;5.328;2023-10-31T09:15:19;14.90;78.30
41884;DHT22;27566;50.930;5.328;2023-10-31T09:17:47;15.00;78.40
41884;DHT22;27566;50.930;5.328;2023-10-31T09:20:13;15.10;78.20
41884;DHT22;27566;50.930;5.328;2023-10-31T09:22:39;15.30;78.20
41884;DHT22;27566;50.930;5.328;2023-10-31T09:25:05;15.50;77.40
41884;DHT22;27566;50.930;5.328;2023-10-31T09:27:32;15.50;75.20
41884;DHT22;27566;50.930;5.328;2023-10-31T09:29:58;15.50;75.80
41884;DHT22;27566;50.930;5.328;2023-10-31T09:32:23;15.70;75.50
41884;DHT22;27566;50.930;5.328;2023-10-31T09:34:49;15.70;74.30
41884;DHT22;27566;50.930;5.328;2023-10-31T09:37:15;15.70;74.40
41884;DHT22;27566;50.930;5.328;2023-10-31T09:39:41;15.70;73.90
41884;DHT22;27566;50.930;5.328;2023-10-31T09:42:07;15.60;73.90
41884;DHT22;27566;50.930;5.328;2023-10-31T09:44:33;15.60;73.60
41884;DHT22;27566;50.930;5.328;2023-10-31T09:47:00;15.60;74.00
41884;DHT22;27566;50.930;5.328;2023-10-31T09:49:26;15.70;74.40
41884;DHT22;27566;50.930;5.328;2023-10-31T09:51:52;15.80;74.20
41884;DHT22;27566;50.930;5.328;2023-10-31T09:54:19;16.00;74.30
41884;DHT22;27566;50.930;5.328;2023-10-31T09:56:45;16.20;73.50
41884;DHT22;27566;50.930;5.328;2023-10-31T09:59:14;16.40;72.30
41884;DHT22;27566;50.930;5.328;2023-10-31T10:01:40;16.40;71.80
41884;DHT22;27566;50.930;5.328;2023-10-31T10:04:06;16.40;71.40
41884;DHT22;27566;50.930;5.328;2023-10-31T10:06:32;16.40;71.30
41884;DHT22;27566;50.930;5.328;2023-10-31T10:08:58;16.40;71.50
41884;DHT22;27566;50.930;5.328;2023-10-31T10:11:24;16.50;71.40
41884;DHT22;27566;50.930;5.328;2023-10-31T10:13:53;16.50;70.80
41884;DHT22;27566;50.930;5.328;2023-10-31T10:16:32;16.60;70.60
41884;DHT22;27566;50.930;5.328;2023-10-31T10:21:51;16.50;68.60
41884;DHT22;27566;50.930;5.328;2023-10-31T10:24:21;16.50;69.50
41884;DHT22;27566;50.930;5.328;2023-10-31T10:26:48;16.40;70.00
41884;DHT22;27566;50.930;5.328;2023-10-31T10:29:15;16.30;69.90
41884;DHT22;27566;50.930;5.328;2023-10-31T10:31:41;16.30;70.40
41884;DHT22;27566;50.930;5.328;2023-10-31T10:34:08;16.20;70.40
41884;DHT22;27566;50.930;5.328;2023-10-31T10:36:35;16.20;70.70
41884;DHT22;27566;50.930;5.328;2023-10-31T10:39:01;16.20;70.90
41884;DHT22;27566;50.930;5.328;2023-10-31T10:41:29;16.30;71.10
41884;DHT22;27566;50.930;5.328;2023-10-31T10:44:02;16.40;70.60
41884;DHT22;27566;50.930;5.328;2023-10-31T10:46:35;16.40;70.70
41884;DHT22;27566;50.930;5.328;2023-10-31T10:49:04;16.50;70.10
41884;DHT22;27566;50.930;5.328;2023-10-31T10:54:11;16.60;70.50
41884;DHT22;27566;50.930;5.328;2023-10-31T10:56:46;16.70;70.00
41884;DHT22;27566;50.930;5.328;2023-10-31T10:59:20;16.90;69.10
41884;DHT22;27566;50.930;5.328;2023-10-31T11:01:46;17.00;68.70
41884;DHT22;27566;50.930;5.328;2023-10-31T11:04:14;17.10;68.60
41884;DHT22;27566;50.930;5.328;2023-10-31T11:06:41;17.10;68.50
41884;DHT22;27566;50.930;5.328;2023-10-31T11:09:09;17.10;68.40
41884;DHT22;27566;50.930;5.328;2023-10-31T11:11:39;17.10;68.30
41884;DHT22;27566;50.930;5.328;2023-10-31T11:14:05;17.10;67.70
41884;DHT22;27566;50.930;5.328;2023-10-31T11:16:53;17.20;67.90
41884;DHT22;27566;50.930;5.328;2023-10-31T11:19:20;17.30;67.50
41884;DHT22;27566;50.930;5.328;2023-10-31T11:21:59;17.20;67.20
41884;DHT22;27566;50.930;5.328;2023-10-31T11:24:31;17.20;67.70
41884;DHT22;27566;50.930;5.328;2023-10-31T11:27:02;17.30;67.30
41884;DHT22;27566;50.930;5.328;2023-10-31T11:29:28;17.30;67.00
41884;DHT22;27566;50.930;5.328;2023-10-31T11:31:57;17.40;66.90
41884;DHT22;27566;50.930;5.328;2023-10-31T11:34:25;17.50;66.60
41884;DHT22;27566;50.930;5.328;2023-10-31T11:36:52;17.70;66.70
41884;DHT22;27566;50.930;5.328;2023-10-31T11:39:22;17.70;66.20
41884;DHT22;27566;50.930;5.328;2023-10-31T11:41:54;17.80;65.40
41884;DHT22;27566;50.930;5.328;2023-10-31T11:44:27;17.80;65.50
41884;DHT22;27566;50.930;5.328;2023-10-31T11:46:53;18.00;65.50
41884;DHT22;27566;50.930;5.328;2023-10-31T11:49:46;18.10;64.60
41884;DHT22;27566;50.930;5.328;2023-10-31T11:52:18;18.10;64.90
41884;DHT22;27566;50.930;5.328;2023-10-31T11:54:44;18.10;64.50
41884;DHT22;27566;50.930;5.328;2023-10-31T11:57:10;18.10;63.80
41884;DHT22;27566;50.930;5.328;2023-10-31T11:59:39;18.10;64.30
41884;DHT22;27566;50.930;5.328;2023-10-31T12:02:15;18.10;64.30
41884;DHT22;27566;50.930;5.328;2023-10-31T12:04:41;18.10;64.10
41884;DHT22;27566;50.930;5.328;2023-10-31T12:07:08;18.00;63.80
41884;DHT22;27566;50.930;5.328;2023-10-31T12:09:48;17.80;64.10
41884;DHT22;27566;50.930;5.328;2023-10-31T12:12:14;17.60;63.90
41884;DHT22;27566;50.930;5.328;2023-10-31T12:14:40;17.50;64.20
41884;DHT22;27566;50.930;5.328;2023-10-31T12:17:07;17.40;64.80
41884;DHT22;27566;50.930;5.328;2023-10-31T12:19:36;17.40;65.60
41884;DHT22;27566;50.930;5.328;2023-10-31T12:22:02;17.60;65.40
41884;DHT22;27566;50.930;5.328;2023-10-31T12:24:37;17.80;65.50
41884;DHT22;27566;50.930;5.328;2023-10-31T12:27:03;17.90;65.10
41884;DHT22;27566;50.930;5.328;2023-10-31T12:29:29;17.90;64.70
41884;DHT22;27566;50.930;5.328;2023-10-31T12:31:55;17.90;64.90
41884;DHT22;27566;50.930;5.328;2023-10-31T12:34:24;18.00;64.50
41884;DHT22;27566;50.930;5.328;2023-10-31T12:36:51;17.90;64.40
41884;DHT22;27566;50.930;5.328;2023-10-31T12:39:21;18.00;64.40
41884;DHT22;27566;50.930;5.328;2023-10-31T12:41:47;18.00;64.40
41884;DHT22;27566;50.930;5.328;2023-10-31T12:44:18;18.00;64.20
41884;DHT22;27566;50.930;5.328;2023-10-31T12:46:46;17.90;64.40
41884;DHT22;27566;50.930;5.328;2023-10-31T12:49:16;17.70;64.40
41884;DHT22;27566;50.930;5.328;2023-10-31T12:52:02;17.50;66.00
41884;DHT22;27566;50.930;5.328;2023-10-31T12:57:04;17.40;66.90
41884;DHT22;27566;50.930;5.328;2023-10-31T12:59:35;17.40;66.80
41884;DHT22;27566;50.930;5.328;2023-10-31T13:02:04;17.40;66.70
41884;DHT22;27566;50.930;5.328;2023-10-31T13:04:32;17.50;66.80
41884;DHT22;27566;50.930;5.328;2023-10-31T13:07:00;17.40;66.70
41884;DHT22;27566;50.930;5.328;2023-10-31T13:09:36;17.30;66.90
41884;DHT22;27566;50.930;5.328;2023-10-31T13:12:05;17.30;67.60
41884;DHT22;27566;50.930;5.328;2023-10-31T13:14:31;17.20;67.70
41884;DHT22;27566;50.930;5.328;2023-10-31T13:16:58;17.00;67.90
41884;DHT22;27566;50.930;5.328;2023-10-31T13:19:24;16.90;68.20
41884;DHT22;27566;50.930;5.328;2023-10-31T13:21:50;16.80;68.50
41884;DHT22;27566;50.930;5.328;2023-10-31T13:24:17;16.70;68.90
41884;DHT22;27566;50.930;5.328;2023-10-31T13:26:43;16.50;69.10
41884;DHT22;27566;50.930;5.328;2023-10-31T13:29:10;16.40;69.60
41884;DHT22;27566;50.930;5.328;2023-10-31T13:31:37;16.30;69.90
41884;DHT22;27566;50.930;5.328;2023-10-31T13:34:03;16.10;70.30
41884;DHT22;27566;50.930;5.328;2023-10-31T13:36:29;16.00;70.70
41884;DHT22;27566;50.930;5.328;2023-10-31T13:38:55;16.00;71.20
41884;DHT22;27566;50.930;5.328;2023-10-31T13:41:21;15.90;72.00
41884;DHT22;27566;50.930;5.328;2023-10-31T13:43:47;15.80;72.70
41884;DHT22;27566;50.930;5.328;2023-10-31T13:46:14;15.70;73.90
41884;DHT22;27566;50.930;5.328;2023-10-31T13:48:39;15.60;74.40
41884;DHT22;27566;50.930;5.328;2023-10-31T13:51:05;15.50;75.10
41884;DHT22;27566;50.930;5.328;2023-10-31T13:53:31;15.50;75.50
41884;DHT22;27566;50.930;5.328;2023-10-31T13:55:57;15.50;76.00
41884;DHT22;27566;50.930;5.328;2023-10-31T13:58:23;15.40;76.70
41884;DHT22;27566;50.930;5.328;2023-10-31T14:00:49;15.40;77.30
41884;DHT22;27566;50.930;5.328;2023-10-31T14:03:15;15.30;78.00
41884;DHT22;27566;50.930;5.328;2023-10-31T14:05:41;15.30;78.60
41884;DHT22;27566;50.930;5.328;2023-10-31T14:08:07;15.20;79.10
41884;DHT22;27566;50.930;5.328;2023-10-31T14:10:34;15.20;79.50
41884;DHT22;27566;50.930;5.328;2023-10-31T14:13:00;15.10;79.80
41884;DHT22;27566;50.930;5.328;2023-10-31T14:15:26;15.10;80.20
41884;DHT22;27566;50.930;5.328;2023-10-31T14:17:52;15.10;80.40
41884;DHT22;27566;50.930;5.328;2023-10-31T14:20:18;15.00;80.70
41884;DHT22;27566;50.930;5.328;2023-10-31T14:22:50;15.00;81.30
41884;DHT22;27566;50.930;5.328;2023-10-31T14:25:15;15.00;81.50
41884;DHT22;27566;50.930;5.328;2023-10-31T14:27:42;14.90;81.80
41884;DHT22;27566;50.930;5.328;2023-10-31T14:30:11;14.90;82.10
41884;DHT22;27566;50.930;5.328;2023-10-31T14:32:38;14.90;82.80
41884;DHT22;27566;50.930;5.328;2023-10-31T14:35:05;14.90;83.10
41884;DHT22;27566;50.930;5.328;2023-10-31T14:37:32;14.70;83.00
41884;DHT22;27566;50.930;5.328;2023-10-31T14:39:58;14.70;83.30
41884;DHT22;27566;50.930;5.328;2023-10-31T14:42:24;14.70;83.60
41884;DHT22;27566;50.930;5.328;2023-10-31T14:44:50;14.70;83.90
41884;DHT22;27566;50.930;5.328;2023-10-31T14:47:16;14.60;84.20
41884;DHT22;27566;50.930;5.328;2023-10-31T14:49:42;14.60;84.40
41884;DHT22;27566;50.930;5.328;2023-10-31T14:52:08;14.60;85.30
41884;DHT22;27566;50.930;5.328;2023-10-31T14:54:34;14.60;85.00
41884;DHT22;27566;50.930;5.328;2023-10-31T14:57:01;14.60;85.30
41884;DHT22;27566;50.930;5.328;2023-10-31T14:59:27;14.60;85.30
41884;DHT22;27566;50.930;5.328;2023-10-31T15:01:53;14.60;85.40
41884;DHT22;27566;50.930;5.328;2023-10-31T15:04:19;14.70;85.60
41884;DHT22;27566;50.930;5.328;2023-10-31T15:06:45;14.90;85.90
41884;DHT22;27566;50.930;5.328;2023-10-31T15:09:11;15.00;86.10
41884;DHT22;27566;50.930;5.328;2023-10-31T15:11:37;15.20;86.20
41884;DHT22;27566;50.930;5.328;2023-10-31T15:14:03;15.40;85.90
41884;DHT22;27566;50.930;5.328;2023-10-31T15:16:29;15.50;85.30
41884;DHT22;27566;50.930;5.328;2023-10-31T15:18:55;15.50;84.80
41884;DHT22;27566;50.930;5.328;2023-10-31T15:21:21;15.50;84.60
41884;DHT22;27566;50.930;5.328;2023-10-31T15:23:47;15.50;83.70
41884;DHT22;27566;50.930;5.328;2023-10-31T15:26:13;15.40;83.40
41884;DHT22;27566;50.930;5.328;2023-10-31T15:28:40;15.30;83.70
41884;DHT22;27566;50.930;5.328;2023-10-31T15:31:08;15.20;84.00
41884;DHT22;27566;50.930;5.328;2023-10-31T15:33:34;15.20;84.00
41884;DHT22;27566;50.930;5.328;2023-10-31T15:35:59;15.10;83.50